sensor_id;sensor_type;location;lat;lon;timestamp;temperature;humidity
4962;DHT22;2496;52.468;13.342;2023-02-21T00:02:25;8.90;99.90
4962;DHT22;2496;52.468;13.342;2023-02-21T00:05:11;8.90;99.90
4962;DHT22;2496;52.468;13.342;2023-02-21T00:07:56;8.90;99.90
4962;DHT22;2496;52.468;13.342;2023-02-21T00:10:43;8.90;99.90
4962;DHT22;2496;52.468;13.342;2023-02-21T00:13:35;8.80;99.90
4962;DHT22;2496;52.468;13.342;2023-02-21T00:16:19;8.80;99.90
4962;DHT22;2496;52.468;13.342;2023-02-21T00:19:04;8.80;99.90
4962;DHT22;2496;52.468;13.342;2023-02-21T00:21:50;8.80;99.90
4962;DHT22;2496;52.468;13.342;2023-02-21T00:24:35;8.80;99.90
4962;DHT22;2496;52.468;13.342;2023-02-21T00:27:19;8.80;99.90
4962;DHT22;2496;52.468;13.342;2023-02-21T00:30:04;8.80;99.90
4962;DHT22;2496;52.468;13.342;2023-02-21T00:32:49;8.80;99.90
4962;DHT22;2496;52.468;13.342;2023-02-21T00:35:37;8.80;99.90
4962;DHT22;2496;52.468;13.342;2023-02-21T00:38:25;8.80;99.90
4962;DHT22;2496;52.468;13.342;2023-02-21T00:41:10;8.80;99.90
4962;DHT22;2496;52.468;13.342;2023-02-21T00:43:54;8.80;99.90
4962;DHT22;2496;52.468;13.342;2023-02-21T00:46:39;8.80;99.90
4962;DHT22;2496;52.468;13.342;2023-02-21T00:49:24;8.80;99.90
4962;DHT22;2496;52.468;13.342;2023-02-21T00:52:17;8.80;99.90
4962;DHT22;2496;52.468;13.342;2023-02-21T00:55:04;8.70;99.90
4962;DHT22;2496;52.468;13.342;2023-02-21T00:58:06;8.70;99.90
4962;DHT22;2496;52.468;13.342;2023-02-21T01:00:50;8.70;99.90
4962;DHT22;2496;52.468;13.342;2023-02-21T01:03:38;8.70;99.90
4962;DHT22;2496;52.468;13.342;2023-02-21T01:06:25;8.70;99.90
4962;DHT22;2496;52.468;13.342;2023-02-21T01:09:10;8.70;99.90
4962;DHT22;2496;52.468;13.342;2023-02-21T01:12:07;8.70;99.90
4962;DHT22;2496;52.468;13.342;2023-02-21T01:14:52;8.70;99.90
4962;DHT22;2496;52.468;13.342;2023-02-21T01:17:37;8.70;99.90
4962;DHT22;2496;52.468;13.342;2023-02-21T01:20:21;8.80;99.90
4962;DHT22;2496;52.468;13.342;2023-02-21T01:23:06;8.80;99.90
4962;DHT22;2496;52.468;13.342;2023-02-21T01:25:51;8.70;99.90
4962;DHT22;2496;52.468;13.342;2023-02-21T01:28:40;8.80;99.90
4962;DHT22;2496;52.468;13.342;2023-02-21T01:31:24;8.70;99.90
4962;DHT22;2496;52.468;13.342;2023-02-21T01:34:08;8.80;99.90
4962;DHT22;2496;52.468;13.342;2023-02-21T01:36:53;8.80;99.90
4962;DHT22;2496;52.468;13.342;2023-02-21T01:39:37;8.80;99.90
4962;DHT22;2496;52.468;13.342;2023-02-21T01:42:22;8.80;99.90
4962;DHT22;2496;52.468;13.342;2023-02-21T01:45:37;8.80;99.90
4962;DHT22;2496;52.468;13.342;2023-02-21T01:48:26;8.80;99.90
4962;DHT22;2496;52.468;13.342;2023-02-21T01:51:14;8.80;99.90
4962;DHT22;2496;52.468;13.342;2023-02-21T01:54:00;8.80;99.90
4962;DHT22;2496;52.468;13.342;2023-02-21T01:56:47;8.80;99.90
4962;DHT22;2496;52.468;13.342;2023-02-21T01:59:35;8.80;99.90
4962;DHT22;2496;52.468;13.342;2023-02-21T02:02:28;8.80;99.90
4962;DHT22;2496;52.468;13.342;2023-02-21T02:05:14;8.80;99.90
4962;DHT22;2496;52.468;13.342;2023-02-21T02:07:59;8.80;99.90
4962;DHT22;2496;52.468;13.342;2023-02-21T02:10:44;8.80;99.90
4962;DHT22;2496;52.468;13.342;2023-02-21T02:13:43;8.80;99.90
4962;DHT22;2496;52.468;13.342;2023-02-21T02:16:20;8.90;99.90
4962;DHT22;2496;52.468;13.342;2023-02-21T02:19:26;8.90;99.90
4962;DHT22;2496;52.468;13.342;2023-02-21T02:22:24;8.90;99.90
4962;DHT22;2496;52.468;13.342;2023-02-21T02:25:07;8.90;99.90
4962;DHT22;2496;52.468;13.342;2023-02-21T02:27:52;8.90;99.90
4962;DHT22;2496;52.468;13.342;2023-02-21T02:30:50;9.00;99.90
4962;DHT22;2496;52.468;13.342;2023-02-21T02:33:56;8.90;99.90
4962;DHT22;2496;52.468;13.342;2023-02-21T02:36:32;9.00;99.90
4962;DHT22;2496;52.468;13.342;2023-02-21T02:39:07;9.00;99.90
4962;DHT22;2496;52.468;13.342;2023-02-21T02:41:46;9.00;99.90
4962;DHT22;2496;52.468;13.342;2023-02-21T02:44:19;9.00;99.90
4962;DHT22;2496;52.468;13.342;2023-02-21T02:46:48;9.10;99.90
4962;DHT22;2496;52.468;13.342;2023-02-21T02:49:19;9.00;99.90
4962;DHT22;2496;52.468;13.342;2023-02-21T02:51:48;9.10;99.90
4962;DHT22;2496;52.468;13.342;2023-02-21T02:54:16;9.10;99.90
4962;DHT22;2496;52.468;13.342;2023-02-21T02:56:44;9.10;99.90
4962;DHT22;2496;52.468;13.342;2023-02-21T02:59:16;9.10;99.90
4962;DHT22;2496;52.468;13.342;2023-02-21T03:05:00;9.10;99.90
4962;DHT22;2496;52.468;13.342;2023-02-21T03:07:36;9.10;99.90
4962;DHT22;2496;52.468;13.342;2023-02-21T03:10:12;9.10;99.90
4962;DHT22;2496;52.468;13.342;2023-02-21T03:12:46;9.10;99.90
4962;DHT22;2496;52.468;13.342;2023-02-21T03:15:21;9.10;99.90
4962;DHT22;2496;52.468;13.342;2023-02-21T03:17:56;9.10;99.90
4962;DHT22;2496;52.468;13.342;2023-02-21T03:20:27;9.10;99.90
4962;DHT22;2496;52.468;13.342;2023-02-21T03:22:57;9.10;99.90
4962;DHT22;2496;52.468;13.342;2023-02-21T03:25:28;9.10;99.90
4962;DHT22;2496;52.468;13.342;2023-02-21T03:27:59;9.10;99.90
4962;DHT22;2496;52.468;13.342;2023-02-21T03:30:28;9.20;99.90
4962;DHT22;2496;52.468;13.342;2023-02-21T03:32:56;9.20;99.90
4962;DHT22;2496;52.468;13.342;2023-02-21T03:35:30;9.20;99.90
4962;DHT22;2496;52.468;13.342;2023-02-21T03:37:59;9.20;99.90
4962;DHT22;2496;52.468;13.342;2023-02-21T03:40:28;9.30;99.90
4962;DHT22;2496;52.468;13.342;2023-02-21T03:42:57;9.20;99.90
4962;DHT22;2496;52.468;13.342;2023-02-21T03:45:24;9.30;99.90
4962;DHT22;2496;52.468;13.342;2023-02-21T03:47:51;9.30;99.90
4962;DHT22;2496;52.468;13.342;2023-02-21T03:50:19;9.30;99.90
4962;DHT22;2496;52.468;13.342;2023-02-21T03:52:46;9.30;99.90
4962;DHT22;2496;52.468;13.342;2023-02-21T03:55:14;9.30;99.90
4962;DHT22;2496;52.468;13.342;2023-02-21T03:57:42;9.30;99.90
4962;DHT22;2496;52.468;13.342;2023-02-21T04:00:10;9.30;99.90
4962;DHT22;2496;52.468;13.342;2023-02-21T04:02:38;9.40;99.90
4962;DHT22;2496;52.468;13.342;2023-02-21T04:05:06;9.30;99.90
4962;DHT22;2496;52.468;13.342;2023-02-21T04:07:33;9.40;99.90
4962;DHT22;2496;52.468;13.342;2023-02-21T04:10:00;9.40;99.90
4962;DHT22;2496;52.468;13.342;2023-02-21T04:12:29;9.40;99.90
4962;DHT22;2496;52.468;13.342;2023-02-21T04:14:56;9.40;99.90
4962;DHT22;2496;52.468;13.342;2023-02-21T04:17:23;9.50;99.90
4962;DHT22;2496;52.468;13.342;2023-02-21T04:19:50;9.40;99.90
4962;DHT22;2496;52.468;13.342;2023-02-21T04:22:17;9.40;99.90
4962;DHT22;2496;52.468;13.342;2023-02-21T04:24:45;9.50;99.90
4962;DHT22;2496;52.468;13.342;2023-02-21T04:27:13;9.50;99.90
4962;DHT22;2496;52.468;13.342;2023-02-21T04:29:41;9.50;99.90
4962;DHT22;2496;52.468;13.342;2023-02-21T04:32:09;9.50;99.90
4962;DHT22;2496;52.468;13.342;2023-02-21T04:34:36;9.50;99.90
4962;DHT22;2496;52.468;13.342;2023-02-21T04:37:03;9.50;99.90
4962;DHT22;2496;52.468;13.342;2023-02-21T04:39:30;9.50;99.90
4962;DHT22;2496;52.468;13.342;2023-02-21T04:41:57;9.50;99.90
4962;DHT22;2496;52.468;13.342;2023-02-21T04:44:24;9.50;99.90
4962;DHT22;2496;52.468;13.342;2023-02-21T04:46:53;9.60;99.90
4962;DHT22;2496;52.468;13.342;2023-02-21T04:49:20;9.50;99.90
4962;DHT22;2496;52.468;13.342;2023-02-21T04:51:49;9.50;99.90
4962;DHT22;2496;52.468;13.342;2023-02-21T04:54:19;9.50;99.90
4962;DHT22;2496;52.468;13.342;2023-02-21T04:56:46;9.50;99.90
4962;DHT22;2496;52.468;13.342;2023-02-21T04:59:14;9.50;99.90
4962;DHT22;2496;52.468;13.342;2023-02-21T05:01:41;9.50;99.90
4962;DHT22;2496;52.468;13.342;2023-02-21T05:04:09;9.40;99.90
4962;DHT22;2496;52.468;13.342;2023-02-21T05:06:36;9.40;99.90
4962;DHT22;2496;52.468;13.342;2023-02-21T05:09:03;9.40;99.90
4962;DHT22;2496;52.468;13.342;2023-02-21T05:11:32;9.40;99.90
4962;DHT22;2496;52.468;13.342;2023-02-21T05:14:00;9.30;99.90
4962;DHT22;2496;52.468;13.342;2023-02-21T05:16:27;9.30;99.90
4962;DHT22;2496;52.468;13.342;2023-02-21T05:18:57;9.30;99.90
4962;DHT22;2496;52.468;13.342;2023-02-21T05:21:26;9.30;99.90
4962;DHT22;2496;52.468;13.342;2023-02-21T05:23:53;9.30;99.90
4962;DHT22;2496;52.468;13.342;2023-02-21T05:26:31;9.30;99.90
4962;DHT22;2496;52.468;13.342;2023-02-21T05:28:58;9.30;99.90
4962;DHT22;2496;52.468;13.342;2023-02-21T05:31:26;9.30;99.90
4962;DHT22;2496;52.468;13.342;2023-02-21T05:33:55;9.30;99.90
4962;DHT22;2496;52.468;13.342;2023-02-21T05:36:22;9.30;99.90
4962;DHT22;2496;52.468;13.342;2023-02-21T05:38:53;9.30;99.90
4962;DHT22;2496;52.468;13.342;2023-02-21T05:41:21;9.30;99.90
4962;DHT22;2496;52.468;13.342;2023-02-21T05:43:48;9.30;99.90
4962;DHT22;2496;52.468;13.342;2023-02-21T05:46:22;9.30;99.90
4962;DHT22;2496;52.468;13.342;2023-02-21T05:48:49;9.30;99.90
4962;DHT22;2496;52.468;13.342;2023-02-21T05:51:17;9.30;99.90
4962;DHT22;2496;52.468;13.342;2023-02-21T05:53:44;9.30;99.90
4962;DHT22;2496;52.468;13.342;2023-02-21T05:56:13;9.30;99.90
4962;DHT22;2496;52.468;13.342;2023-02-21T05:58:40;9.30;99.90
4962;DHT22;2496;52.468;13.342;2023-02-21T06:01:07;9.30;99.90
4962;DHT22;2496;52.468;13.342;2023-02-21T06:03:35;9.20;99.90
4962;DHT22;2496;52.468;13.342;2023-02-21T06:06:02;9.20;99.90
4962;DHT22;2496;52.468;13.342;2023-02-21T06:08:29;9.30;99.90
4962;DHT22;2496;52.468;13.342;2023-02-21T06:10:58;9.30;99.90
4962;DHT22;2496;52.468;13.342;2023-02-21T06:13:26;9.20;99.90
4962;DHT22;2496;52.468;13.342;2023-02-21T06:15:54;9.20;99.90
4962;DHT22;2496;52.468;13.342;2023-02-21T06:18:21;9.20;99.90
4962;DHT22;2496;52.468;13.342;2023-02-21T06:20:48;9.20;99.90
4962;DHT22;2496;52.468;13.342;2023-02-21T06:23:15;9.20;99.90
4962;DHT22;2496;52.468;13.342;2023-02-21T06:25:44;9.20;99.90
4962;DHT22;2496;52.468;13.342;2023-02-21T06:28:11;9.20;99.90
4962;DHT22;2496;52.468;13.342;2023-02-21T06:30:39;9.20;99.90
4962;DHT22;2496;52.468;13.342;2023-02-21T06:33:06;9.20;99.90
4962;DHT22;2496;52.468;13.342;2023-02-21T06:35:33;9.10;99.90
4962;DHT22;2496;52.468;13.342;2023-02-21T06:38:00;9.20;99.90
4962;DHT22;2496;52.468;13.342;2023-02-21T06:40:27;9.20;99.90
4962;DHT22;2496;52.468;13.342;2023-02-21T06:42:54;9.20;99.90
4962;DHT22;2496;52.468;13.342;2023-02-21T06:45:21;9.20;99.90
4962;DHT22;2496;52.468;13.342;2023-02-21T06:47:49;9.20;99.90
4962;DHT22;2496;52.468;13.342;2023-02-21T06:50:16;9.20;99.90
4962;DHT22;2496;52.468;13.342;2023-02-21T06:52:43;9.20;99.90
4962;DHT22;2496;52.468;13.342;2023-02-21T06:55:10;9.20;99.90
4962;DHT22;2496;52.468;13.342;2023-02-21T06:57:37;9.20;99.90
4962;DHT22;2496;52.468;13.342;2023-02-21T07:00:05;9.20;99.90
4962;DHT22;2496;52.468;13.342;2023-02-21T07:02:32;9.20;99.90
4962;DHT22;2496;52.468;13.342;2023-02-21T07:05:01;9.20;99.90
4962;DHT22;2496;52.468;13.342;2023-02-21T07:07:28;9.20;99.90
4962;DHT22;2496;52.468;13.342;2023-02-21T07:09:55;9.20;99.90
4962;DHT22;2496;52.468;13.342;2023-02-21T07:12:22;9.20;99.90
4962;DHT22;2496;52.468;13.342;2023-02-21T07:14:49;9.20;99.90
4962;DHT22;2496;52.468;13.342;2023-02-21T07:17:16;9.20;99.90
4962;DHT22;2496;52.468;13.342;2023-02-21T07:19:43;9.20;99.90
4962;DHT22;2496;52.468;13.342;2023-02-21T07:22:11;9.20;99.90
4962;DHT22;2496;52.468;13.342;2023-02-21T07:24:38;9.20;99.90
4962;DHT22;2496;52.468;13.342;2023-02-21T07:27:06;9.20;99.90
4962;DHT22;2496;52.468;13.342;2023-02-21T07:29:33;9.20;99.90
4962;DHT22;2496;52.468;13.342;2023-02-21T07:32:00;9.20;99.90
4962;DHT22;2496;52.468;13.342;2023-02-21T07:34:27;9.20;99.90
4962;DHT22;2496;52.468;13.342;2023-02-21T07:36:54;9.20;99.90
4962;DHT22;2496;52.468;13.342;2023-02-21T07:39:22;9.20;99.90
4962;DHT22;2496;52.468;13.342;2023-02-21T07:41:49;9.20;99.90
4962;DHT22;2496;52.468;13.342;2023-02-21T07:44:16;9.30;99.90
4962;DHT22;2496;52.468;13.342;2023-02-21T07:46:43;9.30;99.90
4962;DHT22;2496;52.468;13.342;2023-02-21T07:49:11;9.30;99.90
4962;DHT22;2496;52.468;13.342;2023-02-21T07:51:38;9.30;99.90
4962;DHT22;2496;52.468;13.342;2023-02-21T07:54:05;9.30;99.90
4962;DHT22;2496;52.468;13.342;2023-02-21T07:56:33;9.40;99.90
4962;DHT22;2496;52.468;13.342;2023-02-21T07:59:00;9.40;99.90
4962;DHT22;2496;52.468;13.342;2023-02-21T08:01:27;9.40;99.90
4962;DHT22;2496;52.468;13.342;2023-02-21T08:03:54;9.40;99.90
4962;DHT22;2496;52.468;13.342;2023-02-21T08:06:21;9.40;99.90
4962;DHT22;2496;52.468;13.342;2023-02-21T08:08:48;9.40;99.90
4962;DHT22;2496;52.468;13.342;2023-02-21T08:11:15;9.40;99.90
4962;DHT22;2496;52.468;13.342;2023-02-21T08:13:44;9.40;99.90
4962;DHT22;2496;52.468;13.342;2023-02-21T08:16:11;9.50;99.90
4962;DHT22;2496;52.468;13.342;2023-02-21T08:18:37;9.50;99.90
4962;DHT22;2496;52.468;13.342;2023-02-21T08:21:07;9.40;99.90
4962;DHT22;2496;52.468;13.342;2023-02-21T08:23:34;9.50;99.90
4962;DHT22;2496;52.468;13.342;2023-02-21T08:26:02;9.50;99.90
4962;DHT22;2496;52.468;13.342;2023-02-21T08:28:29;9.60;99.90
4962;DHT22;2496;52.468;13.342;2023-02-21T08:30:57;9.60;99.90
4962;DHT22;2496;52.468;13.342;2023-02-21T08:33:24;9.60;99.90
4962;DHT22;2496;52.468;13.342;2023-02-21T08:35:51;9.60;99.90
4962;DHT22;2496;52.468;13.342;2023-02-21T08:38:18;9.70;99.90
4962;DHT22;2496;52.468;13.342;2023-02-21T08:40:45;9.70;99.90
4962;DHT22;2496;52.468;13.342;2023-02-21T08:43:12;9.70;99.90
4962;DHT22;2496;52.468;13.342;2023-02-21T08:45:39;9.70;99.90
4962;DHT22;2496;52.468;13.342;2023-02-21T08:48:07;9.80;99.90
4962;DHT22;2496;52.468;13.342;2023-02-21T08:50:34;9.80;99.90
4962;DHT22;2496;52.468;13.342;2023-02-21T08:53:03;9.80;99.90
4962;DHT22;2496;52.468;13.342;2023-02-21T08:55:30;9.80;99.90
4962;DHT22;2496;52.468;13.342;2023-02-21T08:57:57;9.90;99.90
4962;DHT22;2496;52.468;13.342;2023-02-21T09:00:24;10.00;99.90
4962;DHT22;2496;52.468;13.342;2023-02-21T09:02:57;9.90;99.90
4962;DHT22;2496;52.468;13.342;2023-02-21T09:05:27;10.00;99.90
4962;DHT22;2496;52.468;13.342;2023-02-21T09:07:55;10.00;99.90
4962;DHT22;2496;52.468;13.342;2023-02-21T09:10:24;10.10;99.90
4962;DHT22;2496;52.468;13.342;2023-02-21T09:12:52;10.10;99.90
4962;DHT22;2496;52.468;13.342;2023-02-21T09:15:19;10.10;99.90
4962;DHT22;2496;52.468;13.342;2023-02-21T09:17:46;10.10;99.90
4962;DHT22;2496;52.468;13.342;2023-02-21T09:20:17;10.00;99.90
4962;DHT22;2496;52.468;13.342;2023-02-21T09:22:46;10.00;99.90
4962;DHT22;2496;52.468;13.342;2023-02-21T09:25:15;10.00;99.90
4962;DHT22;2496;52.468;13.342;2023-02-21T09:27:42;10.00;99.90
4962;DHT22;2496;52.468;13.342;2023-02-21T09:30:12;10.00;99.90
4962;DHT22;2496;52.468;13.342;2023-02-21T09:32:40;10.00;99.90
4962;DHT22;2496;52.468;13.342;2023-02-21T09:35:08;10.10;99.90
4962;DHT22;2496;52.468;13.342;2023-02-21T09:37:36;10.10;99.90
4962;DHT22;2496;52.468;13.342;2023-02-21T09:40:10;10.10;99.90
4962;DHT22;2496;52.468;13.342;2023-02-21T09:42:38;10.20;99.90
4962;DHT22;2496;52.468;13.342;2023-02-21T09:45:08;10.20;99.90
4962;DHT22;2496;52.468;13.342;2023-02-21T09:47:37;10.30;99.90
4962;DHT22;2496;52.468;13.342;2023-02-21T09:50:06;10.30;99.90
4962;DHT22;2496;52.468;13.342;2023-02-21T09:52:38;10.40;99.90
4962;DHT22;2496;52.468;13.342;2023-02-21T09:55:13;10.40;99.90
4962;DHT22;2496;52.468;13.342;2023-02-21T09:57:42;10.40;99.90
4962;DHT22;2496;52.468;13.342;2023-02-21T10:00:16;10.30;99.90
4962;DHT22;2496;52.468;13.342;2023-02-21T10:02:53;10.30;99.90
4962;DHT22;2496;52.468;13.342;2023-02-21T10:05:33;10.30;99.90
4962;DHT22;2496;52.468;13.342;2023-02-21T10:08:09;10.40;99.90
4962;DHT22;2496;52.468;13.342;2023-02-21T10:10:43;10.40;99.90
4962;DHT22;2496;52.468;13.342;2023-02-21T10:13:21;10.30;99.90
4962;DHT22;2496;52.468;13.342;2023-02-21T10:15:53;10.30;99.90
4962;DHT22;2496;52.468;13.342;2023-02-21T10:18:27;10.40;99.90
4962;DHT22;2496;52.468;13.342;2023-02-21T10:20:58;10.50;99.90
4962;DHT22;2496;52.468;13.342;2023-02-21T10:23:34;10.60;99.90
4962;DHT22;2496;52.468;13.342;2023-02-21T10:26:06;10.70;99.90
4962;DHT22;2496;52.468;13.342;2023-02-21T10:28:35;10.70;99.90
4962;DHT22;2496;52.468;13.342;2023-02-21T10:31:07;10.80;99.90
4962;DHT22;2496;52.468;13.342;2023-02-21T10:33:37;10.90;99.90
4962;DHT22;2496;52.468;13.342;2023-02-21T10:36:10;10.90;99.90
4962;DHT22;2496;52.468;13.342;2023-02-21T10:38:40;10.90;99.90
4962;DHT22;2496;52.468;13.342;2023-02-21T10:41:10;10.90;99.90
4962;DHT22;2496;52.468;13.342;2023-02-21T10:43:43;10.80;99.90
4962;DHT22;2496;52.468;13.342;2023-02-21T10:46:16;10.80;99.90
4962;DHT22;2496;52.468;13.342;2023-02-21T10:48:46;10.80;99.90
4962;DHT22;2496;52.468;13.342;2023-02-21T10:51:15;10.80;99.90
4962;DHT22;2496;52.468;13.342;2023-02-21T10:53:44;10.80;99.90
4962;DHT22;2496;52.468;13.342;2023-02-21T10:56:36;10.80;99.90
4962;DHT22;2496;52.468;13.342;2023-02-21T10:59:06;10.90;99.90
4962;DHT22;2496;52.468;13.342;2023-02-21T11:01:36;10.90;99.90
4962;DHT22;2496;52.468;13.342;2023-02-21T11:04:24;10.90;99.90
4962;DHT22;2496;52.468;13.342;2023-02-21T11:06:54;10.90;99.90
4962;DHT22;2496;52.468;13.342;2023-02-21T11:09:34;10.90;99.90
4962;DHT22;2496;52.468;13.342;2023-02-21T11:12:05;10.90;99.90
4962;DHT22;2496;52.468;13.342;2023-02-21T11:14:42;10.90;99.90
4962;DHT22;2496;52.468;13.342;2023-02-21T11:17:13;10.80;99.90
4962;DHT22;2496;52.468;13.342;2023-02-21T11:19:43;10.80;99.90
4962;DHT22;2496;52.468;13.342;2023-02-21T11:22:10;10.80;99.90
4962;DHT22;2496;52.468;13.342;2023-02-21T11:24:57;10.70;99.90
4962;DHT22;2496;52.468;13.342;2023-02-21T11:27:28;10.80;99.90
4962;DHT22;2496;52.468;13.342;2023-02-21T11:29:57;10.80;99.90
4962;DHT22;2496;52.468;13.342;2023-02-21T11:32:29;10.80;99.90
4962;DHT22;2496;52.468;13.342;2023-02-21T11:35:01;10.90;99.90
4962;DHT22;2496;52.468;13.342;2023-02-21T11:37:29;10.90;99.90
4962;DHT22;2496;52.468;13.342;2023-02-21T11:39:57;10.90;99.90
4962;DHT22;2496;52.468;13.342;2023-02-21T11:42:29;10.80;99.90
4962;DHT22;2496;52.468;13.342;2023-02-21T11:45:13;10.80;99.90
4962;DHT22;2496;52.468;13.342;2023-02-21T11:47:45;10.80;99.90
4962;DHT22;2496;52.468;13.342;2023-02-21T11:52:48;10.90;99.90
4962;DHT22;2496;52.468;13.342;2023-02-21T11:55:20;11.00;99.90
4962;DHT22;2496;52.468;13.342;2023-02-21T11:57:54;11.00;99.90
4962;DHT22;2496;52.468;13.342;2023-02-21T12:00:27;11.00;99.90
4962;DHT22;2496;52.468;13.342;2023-02-21T12:03:27;10.90;99.90
4962;DHT22;2496;52.468;13.342;2023-02-21T12:06:01;10.80;99.90
4962;DHT22;2496;52.468;13.342;2023-02-21T12:08:43;10.70;99.90
4962;DHT22;2496;52.468;13.342;2023-02-21T12:14:18;10.60;99.90
4962;DHT22;2496;52.468;13.342;2023-02-21T12:16:56;10.60;99.90
4962;DHT22;2496;52.468;13.342;2023-02-21T12:19:57;10.70;99.90
4962;DHT22;2496;52.468;13.342;2023-02-21T12:22:45;10.70;99.90
4962;DHT22;2496;52.468;13.342;2023-02-21T12:25:21;10.70;99.90
4962;DHT22;2496;52.468;13.342;2023-02-21T12:27:53;10.70;99.90
4962;DHT22;2496;52.468;13.342;2023-02-21T12:30:37;10.60;99.90
4962;DHT22;2496;52.468;13.342;2023-02-21T12:33:18;10.60;99.90
4962;DHT22;2496;52.468;13.342;2023-02-21T12:36:01;10.70;99.90
4962;DHT22;2496;52.468;13.342;2023-02-21T12:38:51;10.70;99.90
4962;DHT22;2496;52.468;13.342;2023-02-21T12:44:13;10.60;99.90
4962;DHT22;2496;52.468;13.342;2023-02-21T12:46:48;10.60;99.90
4962;DHT22;2496;52.468;13.342;2023-02-21T12:49:20;10.70;99.90
4962;DHT22;2496;52.468;13.342;2023-02-21T12:51:53;10.70;99.90
4962;DHT22;2496;52.468;13.342;2023-02-21T12:54:33;10.70;99.90
4962;DHT22;2496;52.468;13.342;2023-02-21T12:57:06;10.80;99.90
4962;DHT22;2496;52.468;13.342;2023-02-21T12:59:44;10.80;99.90
4962;DHT22;2496;52.468;13.342;2023-02-21T13:02:18;10.80;99.90
4962;DHT22;2496;52.468;13.342;2023-02-21T13:04:53;10.80;99.90
4962;DHT22;2496;52.468;13.342;2023-02-21T13:07:23;10.90;99.90
4962;DHT22;2496;52.468;13.342;2023-02-21T13:09:55;10.90;99.90
4962;DHT22;2496;52.468;13.342;2023-02-21T13:12:28;10.90;99.90
4962;DHT22;2496;52.468;13.342;2023-02-21T13:15:02;11.00;99.90
4962;DHT22;2496;52.468;13.342;2023-02-21T13:17:31;11.00;99.90
4962;DHT22;2496;52.468;13.342;2023-02-21T13:20:02;11.00;99.90
4962;DHT22;2496;52.468;13.342;2023-02-21T13:26:07;11.10;99.90
4962;DHT22;2496;52.468;13.342;2023-02-21T13:28:38;11.10;99.90
4962;DHT22;2496;52.468;13.342;2023-02-21T13:31:18;11.10;99.90
4962;DHT22;2496;52.468;13.342;2023-02-21T13:33:51;11.10;99.90
4962;DHT22;2496;52.468;13.342;2023-02-21T13:36:25;11.10;99.90
4962;DHT22;2496;52.468;13.342;2023-02-21T13:39:02;11.20;99.90
4962;DHT22;2496;52.468;13.342;2023-02-21T13:41:33;11.20;99.90
4962;DHT22;2496;52.468;13.342;2023-02-21T13:44:06;11.20;99.90
4962;DHT22;2496;52.468;13.342;2023-02-21T13:47:04;11.20;99.90
4962;DHT22;2496;52.468;13.342;2023-02-21T13:49:51;11.20;99.90
4962;DHT22;2496;52.468;13.342;2023-02-21T13:52:51;11.20;99.90
4962;DHT22;2496;52.468;13.342;2023-02-21T13:55:28;11.20;99.90
4962;DHT22;2496;52.468;13.342;2023-02-21T14:01:22;11.20;99.90
4962;DHT22;2496;52.468;13.342;2023-02-21T14:03:50;11.20;99.90
4962;DHT22;2496;52.468;13.342;2023-02-21T14:06:35;11.10;99.90
4962;DHT22;2496;52.468;13.342;2023-02-21T14:09:08;11.10;99.90
4962;DHT22;2496;52.468;13.342;2023-02-21T14:11:44;11.10;99.90
4962;DHT22;2496;52.468;13.342;2023-02-21T14:14:22;11.00;99.90
4962;DHT22;2496;52.468;13.342;2023-02-21T14:17:03;11.00;99.90
4962;DHT22;2496;52.468;13.342;2023-02-21T14:19:35;11.00;99.90
4962;DHT22;2496;52.468;13.342;2023-02-21T14:22:11;11.00;99.90
4962;DHT22;2496;52.468;13.342;2023-02-21T14:24:41;11.00;99.90
4962;DHT22;2496;52.468;13.342;2023-02-21T14:27:31;11.00;99.90
4962;DHT22;2496;52.468;13.342;2023-02-21T14:30:32;11.00;99.90
4962;DHT22;2496;52.468;13.342;2023-02-21T14:33:21;10.90;99.90
4962;DHT22;2496;52.468;13.342;2023-02-21T14:36:00;10.90;99.90
4962;DHT22;2496;52.468;13.342;2023-02-21T14:38:37;10.90;99.90
4962;DHT22;2496;52.468;13.342;2023-02-21T14:41:19;10.90;99.90
4962;DHT22;2496;52.468;13.342;2023-02-21T14:44:01;10.90;99.90
4962;DHT22;2496;52.468;13.342;2023-02-21T14:49:49;10.70;99.90
4962;DHT22;2496;52.468;13.342;2023-02-21T14:55:36;10.70;99.90
4962;DHT22;2496;52.468;13.342;2023-02-21T14:58:43;10.70;99.90
4962;DHT22;2496;52.468;13.342;2023-02-21T15:01:27;10.70;99.90
4962;DHT22;2496;52.468;13.342;2023-02-21T15:04:02;10.70;99.90
4962;DHT22;2496;52.468;13.342;2023-02-21T15:06:32;10.70;99.90
4962;DHT22;2496;52.468;13.342;2023-02-21T15:09:10;10.70;99.90
4962;DHT22;2496;52.468;13.342;2023-02-21T15:11:40;10.80;99.90
4962;DHT22;2496;52.468;13.342;2023-02-21T15:14:16;10.80;99.90
4962;DHT22;2496;52.468;13.342;2023-02-21T15:16:50;10.80;99.90
4962;DHT22;2496;52.468;13.342;2023-02-21T15:19:29;10.70;99.90
4962;DHT22;2496;52.468;13.342;2023-02-21T15:22:19;10.70;99.90
4962;DHT22;2496;52.468;13.342;2023-02-21T15:25:15;10.70;99.90
4962;DHT22;2496;52.468;13.342;2023-02-21T15:28:21;10.70;99.90
4962;DHT22;2496;52.468;13.342;2023-02-21T15:30:58;10.70;99.90
4962;DHT22;2496;52.468;13.342;2023-02-21T15:33:29;10.70;99.90
4962;DHT22;2496;52.468;13.342;2023-02-21T15:35:59;10.70;99.90
4962;DHT22;2496;52.468;13.342;2023-02-21T15:38:30;10.70;99.90
4962;DHT22;2496;52.468;13.342;2023-02-21T15:41:03;10.70;99.90
4962;DHT22;2496;52.468;13.342;2023-02-21T15:43:39;10.70;99.90
4962;DHT22;2496;52.468;13.342;2023-02-21T15:46:12;10.60;99.90
4962;DHT22;2496;52.468;13.342;2023-02-21T15:48:40;10.60;99.90
4962;DHT22;2496;52.468;13.342;2023-02-21T15:51:08;10.60;99.90
4962;DHT22;2496;52.468;13.342;2023-02-21T15:53:36;10.60;99.90
4962;DHT22;2496;52.468;13.342;2023-02-21T15:56:19;10.50;99.90
4962;DHT22;2496;52.468;13.342;2023-02-21T15:59:07;10.50;99.90
4962;DHT22;2496;52.468;13.342;2023-02-21T16:01:34;10.40;99.90
4962;DHT22;2496;52.468;13.342;2023-02-21T16:04:19;10.40;99.90
4962;DHT22;2496;52.468;13.342;2023-02-21T16:06:50;10.40;99.90
4962;DHT22;2496;52.468;13.342;2023-02-21T16:09:35;10.40;99.90
4962;DHT22;2496;52.468;13.342;2023-02-21T16:12:05;10.40;99.90
4962;DHT22;2496;52.468;13.342;2023-02-21T16:14:38;10.40;99.90
4962;DHT22;2496;52.468;13.342;2023-02-21T16:17:13;10.40;99.90
4962;DHT22;2496;52.468;13.342;2023-02-21T16:19:44;10.30;99.90
4962;DHT22;2496;52.468;13.342;2023-02-21T16:22:21;10.30;99.90
4962;DHT22;2496;52.468;13.342;2023-02-21T16:24:49;10.30;99.90
4962;DHT22;2496;52.468;13.342;2023-02-21T16:27:17;10.30;99.90
4962;DHT22;2496;52.468;13.342;2023-02-21T16:29:48;10.30;99.90
4962;DHT22;2496;52.468;13.342;2023-02-21T16:32:17;10.30;99.90
4962;DHT22;2496;52.468;13.342;2023-02-21T16:34:45;10.30;99.90
4962;DHT22;2496;52.468;13.342;2023-02-21T16:37:13;10.30;99.90
4962;DHT22;2496;52.468;13.342;2023-02-21T16:39:40;10.20;99.90
4962;DHT22;2496;52.468;13.342;2023-02-21T16:42:07;10.20;99.90
4962;DHT22;2496;52.468;13.342;2023-02-21T16:44:37;10.20;99.90
4962;DHT22;2496;52.468;13.342;2023-02-21T16:47:06;10.10;99.90
4962;DHT22;2496;52.468;13.342;2023-02-21T16:49:33;10.10;99.90
4962;DHT22;2496;52.468;13.342;2023-02-21T16:52:00;10.10;99.90
4962;DHT22;2496;52.468;13.342;2023-02-21T16:54:27;10.10;99.90
4962;DHT22;2496;52.468;13.342;2023-02-21T16:56:54;10.10;99.90
4962;DHT22;2496;52.468;13.342;2023-02-21T16:59:23;10.10;99.90
4962;DHT22;2496;52.468;13.342;2023-02-21T17:01:50;10.10;99.90
4962;DHT22;2496;52.468;13.342;2023-02-21T17:04:22;10.10;99.90